Time;durP1;ratioP1;P1;durP2;ratioP2;P2;SDS_P1;SDS_P2;PMS_P1;PMS_P2;Temp;Humidity;BMP_temperature;BMP_pressure;BME280_temperature;BME280_humidity;BME280_pressure;Samples;Min_cycle;Max_cycle;Signal;HPM_P1;HPM_P2
2023/07/20 00:01:26;;;;;;;2.10;1.80;;;17.60;99.90;;;;;;5044833;28;21222;-81
2023/07/20 00:03:54;;;;;;;3.27;2.00;;;17.50;99.90;;;;;;5047665;28;20398;-81
2023/07/20 00:06:25;;;;;;;2.67;1.83;;;17.60;99.90;;;;;;5049088;27;20386;-81
2023/07/20 00:09:00;;;;;;;2.70;2.10;;;17.50;99.90;;;;;;5062096;27;20977;-82
2023/07/20 00:11:27;;;;;;;2.38;1.90;;;17.60;99.90;;;;;;5017154;28;20463;-82
2023/07/20 00:13:52;;;;;;;2.53;2.17;;;17.50;99.90;;;;;;5057556;27;20404;-82
2023/07/20 00:16:18;;;;;;;2.63;2.05;;;17.50;99.90;;;;;;5028595;28;20406;-82
2023/07/20 00:18:44;;;;;;;3.47;2.28;;;17.40;99.90;;;;;;5050712;27;20398;-81
2023/07/20 00:21:09;;;;;;;2.77;2.30;;;17.60;99.90;;;;;;5035401;28;20407;-81
2023/07/20 00:23:35;;;;;;;2.80;2.50;;;17.40;99.90;;;;;;5021388;28;20465;-81
2023/07/20 00:26:01;;;;;;;2.80;2.47;;;17.40;99.90;;;;;;5013545;28;21251;-82
2023/07/20 00:28:26;;;;;;;2.95;2.50;;;17.40;99.90;;;;;;5037196;28;20398;-82
2023/07/20 00:30:52;;;;;;;2.80;2.50;;;17.30;99.90;;;;;;5036828;28;20418;-81
2023/07/20 00:33:18;;;;;;;2.77;2.40;;;17.30;99.90;;;;;;5042213;28;20410;-82
2023/07/20 00:35:44;;;;;;;2.97;2.45;;;17.30;99.90;;;;;;5031895;28;20427;-82
2023/07/20 00:38:10;;;;;;;4.33;2.70;;;17.30;99.90;;;;;;5031121;28;20399;-82
2023/07/20 00:40:39;;;;;;;3.78;2.58;;;17.30;99.90;;;;;;5044196;27;20437;-82
2023/07/20 00:43:05;;;;;;;4.78;2.70;;;17.30;99.90;;;;;;5035048;27;20406;-82
2023/07/20 00:45:33;;;;;;;3.70;2.60;;;17.30;99.90;;;;;;5036530;28;20420;-82
2023/07/20 00:48:00;;;;;;;3.78;2.63;;;17.30;99.90;;;;;;5036217;28;20462;-82
2023/07/20 00:50:27;;;;;;;3.20;2.40;;;17.20;99.90;;;;;;5025615;28;20458;-82
2023/07/20 00:52:54;;;;;;;3.22;2.53;;;17.20;99.90;;;;;;5031025;28;20413;-82
2023/07/20 00:55:20;;;;;;;3.42;2.60;;;17.20;99.90;;;;;;5029688;28;20402;-82
2023/07/20 00:57:46;;;;;;;4.00;2.83;;;17.20;99.90;;;;;;5031979;28;20938;-82
2023/07/20 01:00:12;;;;;;;4.18;2.92;;;17.20;99.90;;;;;;5027515;28;20939;-82
2023/07/20 01:02:37;;;;;;;4.25;2.70;;;17.20;99.90;;;;;;5026635;27;20430;-82
2023/07/20 01:05:06;;;;;;;3.45;2.60;;;17.10;99.90;;;;;;5015409;28;20405;-82
2023/07/20 01:07:55;;;;;;;3.78;2.80;;;17.20;99.90;;;;;;5035205;28;20433;-82
2023/07/20 01:10:38;;;;;;;3.72;2.70;;;17.10;99.90;;;;;;5020239;28;20486;-82
2023/07/20 01:13:07;;;;;;;3.40;2.70;;;17.10;99.90;;;;;;5036190;28;20406;-82
2023/07/20 01:15:34;;;;;;;4.63;2.70;;;17.10;99.90;;;;;;5028016;27;20417;-82
2023/07/20 01:18:01;;;;;;;4.60;2.90;;;17.10;99.90;;;;;;5033800;28;20402;-82
2023/07/20 01:20:30;;;;;;;4.40;2.80;;;17.20;99.90;;;;;;5030721;27;20923;-82
2023/07/20 01:23:33;;;;;;;3.88;2.80;;;17.10;99.90;;;;;;5026262;28;20406;-82
2023/07/20 01:26:17;;;;;;;3.53;2.80;;;17.00;99.90;;;;;;5030799;28;20440;-82
2023/07/20 01:29:21;;;;;;;4.82;3.03;;;17.00;99.90;;;;;;5033676;28;20414;-82
2023/07/20 01:31:51;;;;;;;4.18;2.83;;;17.00;99.90;;;;;;5030817;28;20833;-82
2023/07/20 01:34:18;;;;;;;4.40;2.87;;;17.00;99.90;;;;;;5042007;28;20390;-82
2023/07/20 01:36:44;;;;;;;3.90;3.00;;;16.90;99.90;;;;;;5044848;27;20390;-82
2023/07/20 01:39:11;;;;;;;4.47;3.10;;;17.00;99.90;;;;;;5030221;28;20405;-82
2023/07/20 01:41:37;;;;;;;4.95;3.35;;;16.90;99.90;;;;;;5030792;27;20900;-82
2023/07/20 01:44:04;;;;;;;6.05;3.40;;;16.90;99.90;;;;;;5032314;28;20409;-82
2023/07/20 01:46:29;;;;;;;3.65;3.13;;;16.90;99.90;;;;;;5027709;27;20474;-82
2023/07/20 01:48:55;;;;;;;4.10;3.40;;;16.80;99.90;;;;;;5026516;28;20876;-82
2023/07/20 01:51:21;;;;;;;4.93;3.40;;;16.80;99.90;;;;;;5011449;28;20420;-82
2023/07/20 01:53:47;;;;;;;4.40;3.50;;;16.80;99.90;;;;;;5029737;28;20411;-82
2023/07/20 01:56:12;;;;;;;4.03;3.43;;;16.70;99.90;;;;;;5022839;28;20408;-82
2023/07/20 01:58:38;;;;;;;4.43;3.53;;;16.70;99.90;;;;;;5030950;27;20799;-82
2023/07/20 02:01:04;;;;;;;5.22;3.70;;;16.70;99.90;;;;;;5029917;27;20419;-82
2023/07/20 02:03:30;;;;;;;5.30;3.83;;;16.60;99.90;;;;;;5050292;27;20469;-82
2023/07/20 02:05:56;;;;;;;6.28;3.70;;;16.60;99.90;;;;;;5027845;28;20440;-82
2023/07/20 02:08:22;;;;;;;4.95;3.70;;;16.50;99.90;;;;;;5051082;28;20405;-82
2023/07/20 02:10:49;;;;;;;4.40;3.70;;;16.50;99.90;;;;;;5036246;28;20422;-82
2023/07/20 02:13:14;;;;;;;4.60;3.90;;;16.40;99.90;;;;;;5031422;28;20401;-82
2023/07/20 02:15:42;;;;;;;5.50;3.63;;;16.40;99.90;;;;;;5026850;28;20928;-82
2023/07/20 02:18:08;;;;;;;5.40;3.92;;;16.50;99.90;;;;;;5032339;28;21272;-82
2023/07/20 02:20:33;;;;;;;5.22;3.75;;;16.30;99.90;;;;;;5025776;28;20412;-82
2023/07/20 02:22:59;;;;;;;5.93;4.03;;;16.30;99.90;;;;;;5027256;28;20406;-82
2023/07/20 02:25:24;;;;;;;4.10;3.70;;;16.20;99.90;;;;;;5025799;27;20773;-81
2023/07/20 02:27:50;;;;;;;5.57;4.00;;;16.20;99.90;;;;;;5035113;28;20413;-81
2023/07/20 02:30:19;;;;;;;4.57;4.00;;;16.10;99.90;;;;;;5030815;27;20429;-81
2023/07/20 02:32:48;;;;;;;5.32;4.22;;;16.10;99.90;;;;;;5031991;28;20439;-81
2023/07/20 02:35:16;;;;;;;4.90;4.22;;;16.10;99.90;;;;;;5031151;28;20416;-81
2023/07/20 02:37:42;;;;;;;5.88;4.32;;;16.00;99.90;;;;;;5035553;28;20405;-81
2023/07/20 02:40:08;;;;;;;5.10;4.40;;;16.10;99.90;;;;;;5047924;27;20410;-81
2023/07/20 02:42:35;;;;;;;5.82;4.30;;;15.90;99.90;;;;;;5039670;28;20425;-81
2023/07/20 02:45:02;;;;;;;4.55;4.05;;;16.10;99.90;;;;;;5030017;28;20402;-81
2023/07/20 02:47:29;;;;;;;4.50;3.78;;;15.80;99.90;;;;;;5035054;28;20406;-81
2023/07/20 02:49:54;;;;;;;4.90;3.55;;;15.80;99.90;;;;;;5017618;27;20758;-81
2023/07/20 02:52:20;;;;;;;3.50;3.17;;;15.70;99.90;;;;;;5035416;28;20404;-81
2023/07/20 02:54:45;;;;;;;4.63;3.67;;;15.70;99.90;;;;;;5034748;27;20409;-81
2023/07/20 02:57:11;;;;;;;4.40;3.77;;;15.60;99.90;;;;;;5028496;27;20462;-81
2023/07/20 02:59:36;;;;;;;3.83;3.40;;;15.60;99.90;;;;;;5028008;28;20444;-81
2023/07/20 03:02:03;;;;;;;3.45;3.15;;;15.60;99.90;;;;;;5033483;28;20817;-81
2023/07/20 03:04:28;;;;;;;4.32;3.53;;;15.50;99.90;;;;;;5033830;28;20418;-81
2023/07/20 03:06:54;;;;;;;4.20;3.73;;;15.50;99.90;;;;;;5041658;28;21003;-82
2023/07/20 03:09:19;;;;;;;5.30;3.90;;;15.50;99.90;;;;;;5034056;28;20466;-81
2023/07/20 03:11:45;;;;;;;4.87;3.97;;;15.40;99.90;;;;;;5033827;27;20928;-81
2023/07/20 03:14:11;;;;;;;4.68;4.10;;;15.40;99.90;;;;;;5028081;28;20431;-81
2023/07/20 03:16:37;;;;;;;5.27;4.57;;;15.30;99.90;;;;;;5032921;27;20425;-81
2023/07/20 03:19:03;;;;;;;4.97;4.37;;;15.30;99.90;;;;;;5044955;28;20433;-81
2023/07/20 03:21:29;;;;;;;4.90;4.35;;;15.30;99.90;;;;;;5026838;28;20438;-81
2023/07/20 03:23:55;;;;;;;4.72;4.20;;;15.30;99.90;;;;;;5028929;28;20499;-81
2023/07/20 03:26:21;;;;;;;4.30;3.90;;;15.30;99.90;;;;;;5027348;28;20753;-81
2023/07/20 03:28:47;;;;;;;4.00;3.20;;;15.30;99.90;;;;;;5032198;27;20402;-81
2023/07/20 03:31:14;;;;;;;3.30;2.80;;;15.20;99.90;;;;;;5034079;28;20510;-82
2023/07/20 03:33:40;;;;;;;3.13;2.78;;;15.20;99.90;;;;;;5050238;27;20791;-82
2023/07/20 03:36:05;;;;;;;3.30;2.83;;;15.10;99.90;;;;;;5032716;28;20440;-82
2023/07/20 03:38:32;;;;;;;3.10;2.80;;;15.10;99.90;;;;;;5025244;28;20454;-82
2023/07/20 03:41:00;;;;;;;3.10;2.80;;;15.90;99.90;;;;;;5027985;28;20409;-82
2023/07/20 03:43:27;;;;;;;2.90;2.60;;;15.50;99.90;;;;;;5031557;28;20434;-82
2023/07/20 03:45:53;;;;;;;3.13;2.38;;;15.10;99.90;;;;;;5039617;27;21056;-82
2023/07/20 03:48:21;;;;;;;2.00;1.90;;;15.00;99.90;;;;;;5025651;27;20470;-82
2023/07/20 03:50:49;;;;;;;2.30;1.90;;;15.00;99.90;;;;;;5031583;28;20457;-82
2023/07/20 03:53:16;;;;;;;1.90;1.80;;;14.90;99.90;;;;;;5032725;27;20801;-82
2023/07/20 03:55:48;;;;;;;2.00;1.80;;;14.90;99.90;;;;;;5024137;28;20409;-82
2023/07/20 03:58:14;;;;;;;2.15;1.95;;;14.90;99.90;;;;;;5026532;27;20411;-82
2023/07/20 04:00:43;;;;;;;2.20;2.00;;;14.80;99.90;;;;;;5026267;28;20542;-81
2023/07/20 04:03:08;;;;;;;2.50;2.08;;;14.80;99.90;;;;;;5033069;27;20425;-81
2023/07/20 04:05:34;;;;;;;4.60;2.20;;;14.80;99.90;;;;;;5025493;28;20405;-81
2023/07/20 04:07:59;;;;;;;3.33;2.23;;;14.80;99.90;;;;;;5029714;28;20493;-81
2023/07/20 04:10:25;;;;;;;2.90;2.60;;;14.70;99.90;;;;;;5021591;28;20436;-81
2023/07/20 04:12:50;;;;;;;4.22;2.85;;;14.70;99.90;;;;;;5031723;28;20791;-81
2023/07/20 04:15:16;;;;;;;5.32;3.05;;;14.70;99.90;;;;;;5029550;28;20419;-82
2023/07/20 04:17:42;;;;;;;4.25;2.97;;;14.70;99.90;;;;;;5040545;28;20398;-82
2023/07/20 04:20:08;;;;;;;5.17;3.60;;;14.70;99.90;;;;;;5027616;28;20425;-83
2023/07/20 04:22:34;;;;;;;5.00;3.55;;;14.60;99.90;;;;;;5023104;28;20409;-82
2023/07/20 04:24:59;;;;;;;4.47;3.70;;;14.60;99.90;;;;;;5044628;28;20393;-82
2023/07/20 04:27:26;;;;;;;4.15;3.60;;;14.60;99.90;;;;;;5028844;28;20449;-82
2023/07/20 04:29:51;;;;;;;4.72;3.67;;;14.60;99.90;;;;;;5022935;28;20421;-82
2023/07/20 04:32:17;;;;;;;4.90;3.60;;;14.60;99.90;;;;;;5024356;28;20415;-82
2023/07/20 04:34:43;;;;;;;4.50;3.75;;;14.60;99.90;;;;;;5031301;27;20931;-82
2023/07/20 04:37:08;;;;;;;4.03;3.60;;;14.60;99.90;;;;;;5031954;27;20788;-82
2023/07/20 04:39:34;;;;;;;4.40;3.50;;;14.60;99.90;;;;;;5030481;28;20432;-82
2023/07/20 04:42:00;;;;;;;4.18;3.60;;;14.60;99.90;;;;;;5025988;28;20422;-82
2023/07/20 04:44:25;;;;;;;4.23;3.40;;;14.60;99.90;;;;;;5021288;28;20897;-82
2023/07/20 04:46:51;;;;;;;5.03;3.87;;;14.50;99.90;;;;;;5025485;28;20492;-82
2023/07/20 04:49:17;;;;;;;5.30;3.87;;;14.50;99.90;;;;;;5029978;28;20932;-82
2023/07/20 04:51:42;;;;;;;4.47;3.83;;;14.60;99.90;;;;;;5047978;27;20449;-82
2023/07/20 04:54:08;;;;;;;5.40;3.97;;;14.70;99.90;;;;;;5011232;27;20417;-82
2023/07/20 04:56:34;;;;;;;5.88;3.95;;;14.50;99.90;;;;;;5038503;27;20469;-82
2023/07/20 04:58:59;;;;;;;4.72;3.97;;;14.60;99.90;;;;;;5043136;27;20557;-83
2023/07/20 05:01:26;;;;;;;5.37;3.90;;;14.60;99.90;;;;;;5028077;28;20501;-84
2023/07/20 05:03:52;;;;;;;4.30;3.90;;;14.60;99.90;;;;;;5030937;28;20579;-84
2023/07/20 05:06:18;;;;;;;5.93;3.80;;;14.60;99.90;;;;;;5031000;28;20413;-84
2023/07/20 05:08:44;;;;;;;5.10;3.88;;;14.60;99.90;;;;;;5022468;28;20446;-84
2023/07/20 05:11:11;;;;;;;6.03;4.10;;;14.60;99.90;;;;;;5028028;28;20789;-83
2023/07/20 05:13:36;;;;;;;4.25;3.58;;;14.60;99.90;;;;;;5026870;28;20417;-83
2023/07/20 05:16:02;;;;;;;4.45;3.72;;;14.60;99.90;;;;;;5026073;27;20429;-82
2023/07/20 05:18:28;;;;;;;5.20;3.95;;;14.60;99.90;;;;;;5010011;28;20478;-83
2023/07/20 05:20:54;;;;;;;5.80;3.80;;;14.70;99.90;;;;;;5007615;28;20517;-84
2023/07/20 05:23:20;;;;;;;4.90;3.97;;;14.70;99.90;;;;;;5025198;27;20882;-83
2023/07/20 05:25:47;;;;;;;4.30;3.85;;;14.70;99.90;;;;;;5057015;27;20410;-83
2023/07/20 05:28:12;;;;;;;5.45;3.95;;;14.70;99.90;;;;;;5026305;27;20415;-84
2023/07/20 05:30:38;;;;;;;5.80;4.28;;;14.90;99.90;;;;;;5030785;28;20426;-84
2023/07/20 05:33:03;;;;;;;4.60;3.80;;;14.80;99.90;;;;;;5125628;27;20934;-83
2023/07/20 05:35:29;;;;;;;6.30;4.23;;;14.80;99.90;;;;;;5027297;28;20410;-83
2023/07/20 05:37:55;;;;;;;5.53;4.05;;;14.90;99.90;;;;;;5030110;28;20427;-83
2023/07/20 05:40:21;;;;;;;5.75;4.25;;;14.90;99.90;;;;;;5027711;28;20960;-83
2023/07/20 05:42:48;;;;;;;5.60;3.90;;;14.90;99.90;;;;;;5055745;27;20711;-83
2023/07/20 05:45:14;;;;;;;6.72;3.70;;;14.90;99.90;;;;;;5036357;27;20410;-82
2023/07/20 05:47:41;;;;;;;6.75;3.85;;;15.00;99.90;;;;;;5023218;28;20453;-84
2023/07/20 05:50:07;;;;;;;5.97;3.53;;;15.60;99.90;;;;;;5028074;28;20428;-82
2023/07/20 05:52:33;;;;;;;5.43;3.60;;;15.00;99.90;;;;;;5029816;28;20406;-82
2023/07/20 05:54:58;;;;;;;5.18;3.45;;;15.00;99.90;;;;;;5031169;28;20409;-82
2023/07/20 05:57:24;;;;;;;4.63;3.40;;;15.10;99.90;;;;;;5023440;27;20418;-82
2023/07/20 05:59:50;;;;;;;6.18;3.38;;;15.10;99.90;;;;;;5052338;27;20421;-82
2023/07/20 06:02:16;;;;;;;4.87;3.37;;;15.10;99.90;;;;;;5030724;28;20411;-82
2023/07/20 06:04:42;;;;;;;5.47;3.53;;;15.20;99.90;;;;;;5033413;28;20401;-82
2023/07/20 06:07:07;;;;;;;5.13;3.33;;;15.20;99.90;;;;;;5021684;28;20485;-83
2023/07/20 06:09:34;;;;;;;6.03;3.28;;;15.20;99.90;;;;;;5036677;28;20451;-82
2023/07/20 06:12:00;;;;;;;4.70;3.40;;;16.10;99.90;;;;;;5013258;27;20504;-82
2023/07/20 06:14:25;;;;;;;5.10;3.30;;;15.30;99.90;;;;;;5081802;27;20491;-83
2023/07/20 06:16:51;;;;;;;4.80;3.50;;;15.30;99.90;;;;;;5044096;27;20920;-82
2023/07/20 06:19:17;;;;;;;4.70;3.33;;;15.30;99.90;;;;;;5020533;28;20920;-82
2023/07/20 06:21:43;;;;;;;4.47;3.00;;;15.80;99.90;;;;;;5029409;28;20405;-81
2023/07/20 06:24:09;;;;;;;6.00;3.10;;;15.40;99.90;;;;;;5015031;27;20413;-82
2023/07/20 06:26:38;;;;;;;6.45;3.17;;;15.40;99.90;;;;;;5026576;28;20752;-82
2023/07/20 06:29:06;;;;;;;5.53;3.00;;;16.20;99.90;;;;;;5026468;28;20953;-81
2023/07/20 06:31:32;;;;;;;5.30;3.00;;;15.80;99.90;;;;;;5035866;28;20440;-82
2023/07/20 06:34:01;;;;;;;4.90;2.78;;;15.80;99.90;;;;;;5041917;27;20422;-81
2023/07/20 06:36:27;;;;;;;4.97;2.80;;;15.50;99.90;;;;;;5029444;28;20412;-81
2023/07/20 06:38:53;;;;;;;3.30;2.70;;;15.50;99.90;;;;;;5029575;28;20409;-81
2023/07/20 06:41:19;;;;;;;5.87;3.10;;;15.60;99.90;;;;;;5010795;28;20425;-81
2023/07/20 06:43:44;;;;;;;4.47;2.88;;;15.60;99.90;;;;;;5035294;28;20433;-81
2023/07/20 06:46:10;;;;;;;5.10;2.80;;;15.60;99.90;;;;;;5049947;28;20416;-81
2023/07/20 06:48:36;;;;;;;4.90;2.90;;;15.70;99.90;;;;;;5027586;28;20437;-82
2023/07/20 06:51:02;;;;;;;4.30;2.73;;;15.70;99.90;;;;;;5035800;27;20493;-81
2023/07/20 06:53:28;;;;;;;5.53;2.58;;;15.70;99.90;;;;;;5028445;28;20410;-81
2023/07/20 06:55:54;;;;;;;4.68;2.45;;;15.80;99.90;;;;;;5034939;28;20746;-82
2023/07/20 06:58:21;;;;;;;5.10;2.75;;;15.80;99.90;;;;;;5033884;28;20394;-81
2023/07/20 07:00:47;;;;;;;5.90;2.63;;;15.80;99.90;;;;;;5028477;28;20488;-82
2023/07/20 07:03:12;;;;;;;4.10;2.60;;;15.80;99.90;;;;;;5026686;28;20559;-82
2023/07/20 07:05:38;;;;;;;4.07;2.70;;;16.10;99.90;;;;;;5032541;28;20405;-83
2023/07/20 07:08:05;;;;;;;12.93;3.17;;;15.90;99.90;;;;;;5035678;28;20437;-81
2023/07/20 07:10:30;;;;;;;4.82;2.90;;;15.90;99.90;;;;;;5029558;28;20430;-83
2023/07/20 07:12:56;;;;;;;3.72;2.70;;;16.00;99.90;;;;;;5033912;28;20402;-81
2023/07/20 07:15:23;;;;;;;3.92;2.55;;;16.00;99.90;;;;;;5018168;28;20413;-82
2023/07/20 07:17:50;;;;;;;3.92;2.60;;;16.10;99.90;;;;;;5047597;27;20849;-81
2023/07/20 07:21:16;;;;;;;5.30;2.80;;;16.10;99.90;;;;;;5027329;28;20476;-82
2023/07/20 07:23:49;;;;;;;5.05;2.17;;;16.90;99.90;;;;;;5028674;28;20410;-82
2023/07/20 07:26:14;;;;;;;4.72;2.10;;;16.20;99.90;;;;;;5027393;28;20407;-81
2023/07/20 07:28:40;;;;;;;4.53;2.30;;;16.20;99.90;;;;;;5028528;28;20986;-81
2023/07/20 07:31:06;;;;;;;3.17;2.05;;;16.60;99.90;;;;;;5021740;28;20434;-81
2023/07/20 07:33:32;;;;;;;3.42;1.70;;;16.30;99.90;;;;;;5030591;28;20437;-81
2023/07/20 07:35:58;;;;;;;4.63;1.60;;;16.30;99.90;;;;;;5025407;27;20426;-85
2023/07/20 07:38:24;;;;;;;3.22;1.58;;;16.40;99.90;;;;;;5048185;28;20405;-82
2023/07/20 07:40:49;;;;;;;2.50;1.50;;;16.40;99.90;;;;;;5052758;28;20454;-82
2023/07/20 07:43:15;;;;;;;3.45;1.48;;;16.50;99.90;;;;;;5044642;28;21103;-81
2023/07/20 07:45:41;;;;;;;4.23;1.70;;;16.50;99.90;;;;;;5028881;28;20583;-81
2023/07/20 07:48:07;;;;;;;2.07;1.50;;;16.60;99.90;;;;;;5030170;28;20460;-81
2023/07/20 07:50:33;;;;;;;3.60;1.70;;;16.70;99.90;;;;;;5022452;28;20425;-81
2023/07/20 07:52:59;;;;;;;3.38;1.50;;;16.70;99.90;;;;;;5039285;27;20425;-81
2023/07/20 07:55:26;;;;;;;2.60;1.55;;;16.80;99.90;;;;;;5030483;28;20977;-81
2023/07/20 07:57:52;;;;;;;3.90;1.58;;;16.90;99.90;;;;;;5018599;28;20431;-82
2023/07/20 08:00:18;;;;;;;2.53;1.53;;;17.10;99.90;;;;;;5026126;28;20428;-83
2023/07/20 08:02:46;;;;;;;4.72;1.60;;;17.10;99.90;;;;;;5016618;28;20417;-81
2023/07/20 08:05:12;;;;;;;3.97;1.60;;;17.20;99.90;;;;;;5045483;28;20408;-80
2023/07/20 08:07:37;;;;;;;2.75;1.40;;;17.20;99.90;;;;;;5028463;28;20397;-81
2023/07/20 08:10:04;;;;;;;3.23;1.40;;;17.30;99.90;;;;;;5026057;28;20426;-80
2023/07/20 08:12:30;;;;;;;2.65;1.40;;;17.40;99.90;;;;;;5050233;28;20409;-80
2023/07/20 08:14:56;;;;;;;2.87;1.40;;;17.40;99.90;;;;;;5052118;28;20393;-80
2023/07/20 08:17:21;;;;;;;2.93;1.30;;;17.50;99.90;;;;;;5019771;28;20417;-80
2023/07/20 08:19:47;;;;;;;3.15;1.40;;;17.50;99.90;;;;;;5032405;27;20409;-80
2023/07/20 08:22:12;;;;;;;2.85;1.50;;;17.50;99.90;;;;;;5034521;27;20428;-80
2023/07/20 08:24:42;;;;;;;2.17;1.47;;;17.50;99.90;;;;;;5028881;28;20814;-80
2023/07/20 08:27:08;;;;;;;3.53;1.38;;;17.50;99.90;;;;;;5031280;28;20402;-80
2023/07/20 08:29:34;;;;;;;2.40;1.50;;;17.50;99.90;;;;;;5042428;28;20428;-80
2023/07/20 08:32:00;;;;;;;3.10;1.40;;;17.50;99.90;;;;;;5029570;28;20406;-80
2023/07/20 08:34:26;;;;;;;1.83;1.30;;;17.70;99.90;;;;;;5028691;27;20995;-81
2023/07/20 08:36:52;;;;;;;2.50;1.50;;;17.70;99.90;;;;;;5028963;28;20437;-80
2023/07/20 08:39:17;;;;;;;2.73;1.43;;;18.10;99.90;;;;;;5032298;28;20516;-80
2023/07/20 08:41:43;;;;;;;2.20;1.48;;;17.80;99.90;;;;;;5022913;28;20433;-81
2023/07/20 08:44:10;;;;;;;3.38;1.50;;;17.80;99.90;;;;;;5022202;28;20411;-83
2023/07/20 08:46:38;;;;;;;3.67;1.50;;;17.90;99.90;;;;;;5033702;28;20402;-80
2023/07/20 08:49:05;;;;;;;3.30;1.48;;;18.00;99.90;;;;;;5026553;28;20411;-80
2023/07/20 08:51:31;;;;;;;3.83;1.60;;;18.10;99.90;;;;;;5027644;28;20421;-80
2023/07/20 08:53:58;;;;;;;3.70;1.55;;;18.20;99.90;;;;;;5029337;28;20497;-80
2023/07/20 08:56:26;;;;;;;4.15;1.48;;;18.40;99.90;;;;;;5041174;28;20761;-79
2023/07/20 08:58:56;;;;;;;2.78;1.50;;;18.50;99.90;;;;;;5024949;28;20409;-81
2023/07/20 09:01:22;;;;;;;3.00;1.80;;;18.70;99.90;;;;;;5032025;28;20445;-81
2023/07/20 09:03:48;;;;;;;3.50;1.40;;;18.80;99.90;;;;;;5027585;28;20409;-80
2023/07/20 09:06:14;;;;;;;2.80;1.55;;;18.90;99.90;;;;;;5030422;27;20504;-80
2023/07/20 09:08:43;;;;;;;2.22;1.50;;;19.00;99.90;;;;;;5007322;28;20452;-80
2023/07/20 09:11:11;;;;;;;2.35;1.80;;;18.80;99.90;;;;;;5019383;28;20427;-80
2023/07/20 09:13:38;;;;;;;2.33;1.60;;;18.80;99.90;;;;;;5023977;28;20413;-79
2023/07/20 09:16:04;;;;;;;2.88;1.50;;;18.80;99.90;;;;;;5047667;28;20826;-80
2023/07/20 09:18:32;;;;;;;3.63;1.60;;;18.70;99.90;;;;;;5031684;28;20936;-81
2023/07/20 09:21:00;;;;;;;2.73;1.60;;;18.60;99.90;;;;;;5045653;27;20981;-84
2023/07/20 09:23:36;;;;;;;4.43;1.80;;;18.50;99.90;;;;;;5025869;28;20830;-79
2023/07/20 09:26:13;;;;;;;4.70;1.80;;;18.60;99.90;;;;;;5031335;27;20805;-81
2023/07/20 09:28:51;;;;;;;3.35;1.80;;;18.90;99.90;;;;;;5031113;28;20789;-80
2023/07/20 09:31:18;;;;;;;2.33;1.58;;;19.40;99.90;;;;;;5031030;27;20555;-80
2023/07/20 09:33:45;;;;;;;3.10;1.50;;;19.60;99.90;;;;;;5049839;28;21153;-80
2023/07/20 09:36:11;;;;;;;6.05;1.90;;;19.90;99.90;;;;;;5033770;27;20491;-81
2023/07/20 09:38:37;;;;;;;3.92;1.67;;;19.90;99.90;;;;;;5032807;27;20477;-81
2023/07/20 09:41:06;;;;;;;3.22;1.60;;;19.80;99.90;;;;;;5031992;28;20427;-80
2023/07/20 09:43:35;;;;;;;4.72;1.80;;;20.00;99.90;;;;;;5014541;28;20429;-80
2023/07/20 09:46:01;;;;;;;3.13;1.50;;;19.90;99.90;;;;;;5031338;28;20406;-80
2023/07/20 09:48:26;;;;;;;2.95;1.60;;;20.00;99.90;;;;;;5030814;28;20405;-80
2023/07/20 09:50:53;;;;;;;3.47;1.40;;;19.80;99.90;;;;;;5031115;28;20936;-80
2023/07/20 09:53:20;;;;;;;1.73;1.40;;;19.80;99.90;;;;;;5059311;27;20471;-82
2023/07/20 09:55:47;;;;;;;2.15;1.35;;;19.80;99.90;;;;;;5035733;28;20405;-80
2023/07/20 09:58:14;;;;;;;2.37;1.30;;;19.80;99.90;;;;;;5031269;28;20773;-80
2023/07/20 10:00:43;;;;;;;2.53;1.40;;;19.80;99.90;;;;;;5014505;28;20409;-80
2023/07/20 10:03:12;;;;;;;3.45;1.42;;;19.70;99.90;;;;;;5028440;28;20947;-80
2023/07/20 10:05:42;;;;;;;3.33;1.30;;;19.70;99.90;;;;;;5030587;28;20489;-80
2023/07/20 10:08:12;;;;;;;3.88;1.50;;;19.70;99.90;;;;;;5030551;28;20409;-80
2023/07/20 10:10:42;;;;;;;2.50;1.40;;;19.90;99.90;;;;;;5027610;27;20438;-80
2023/07/20 10:13:14;;;;;;;3.20;1.50;;;19.60;99.90;;;;;;5028835;28;20484;-80
2023/07/20 10:18:14;;;;;;;3.03;1.58;;;19.50;99.90;;;;;;4987878;28;20437;-62
2023/07/20 10:20:43;;;;;;;2.65;1.38;;;19.50;99.90;;;;;;4990731;28;20498;-65
2023/07/20 10:23:09;;;;;;;4.37;1.50;;;19.40;99.90;;;;;;4986514;28;20483;-63
2023/07/20 10:25:37;;;;;;;3.90;1.55;;;19.30;99.90;;;;;;4982251;28;20414;-68
2023/07/20 10:28:06;;;;;;;2.03;1.50;;;19.30;99.90;;;;;;4982784;28;20407;-62
2023/07/20 10:30:34;;;;;;;3.60;1.60;;;19.20;99.90;;;;;;4986809;28;20426;-63
2023/07/20 10:33:02;;;;;;;3.45;1.70;;;19.10;99.90;;;;;;4971900;28;20447;-63
2023/07/20 10:35:28;;;;;;;2.20;1.40;;;19.10;99.90;;;;;;4974393;28;20413;-68
2023/07/20 10:38:02;;;;;;;3.00;1.60;;;19.10;99.90;;;;;;4986235;28;20968;-66
2023/07/20 10:40:33;;;;;;;4.45;1.80;;;19.10;99.90;;;;;;4984198;28;20429;-63
2023/07/20 10:43:00;;;;;;;2.87;1.77;;;19.00;99.90;;;;;;4978262;28;20403;-67
2023/07/20 10:45:52;;;;;;;2.35;1.60;;;18.90;99.90;;;;;;4986439;28;20453;-63
2023/07/20 10:48:23;;;;;;;2.75;1.60;;;18.90;99.90;;;;;;4975936;28;20864;-63
2023/07/20 10:51:10;;;;;;;3.05;1.50;;;18.80;99.90;;;;;;4986804;28;20418;-64
2023/07/20 10:53:36;;;;;;;2.60;1.40;;;18.80;99.90;;;;;;4968917;28;20969;-63
2023/07/20 10:56:13;;;;;;;2.55;1.50;;;18.70;99.90;;;;;;4985999;28;20427;-63
2023/07/20 10:58:39;;;;;;;2.42;1.50;;;18.80;99.90;;;;;;4970676;28;20407;-66
2023/07/20 11:01:06;;;;;;;2.63;1.40;;;18.80;99.90;;;;;;4983704;28;20403;-67
2023/07/20 11:03:40;;;;;;;2.53;1.50;;;18.90;99.90;;;;;;4985305;28;20903;-63
2023/07/20 11:06:24;;;;;;;3.40;1.50;;;19.00;99.90;;;;;;4987586;28;20895;-63
2023/07/20 11:09:03;;;;;;;2.40;1.50;;;19.20;99.90;;;;;;4980305;28;20492;-66
2023/07/20 11:11:30;;;;;;;3.57;1.77;;;19.40;99.90;;;;;;4974927;28;20496;-65
2023/07/20 11:14:00;;;;;;;2.33;1.25;;;19.50;99.90;;;;;;4987037;28;20441;-63
2023/07/20 11:16:43;;;;;;;3.95;1.50;;;19.60;99.90;;;;;;4956310;28;20430;-63
2023/07/20 11:19:17;;;;;;;1.70;1.35;;;19.70;99.90;;;;;;4979324;28;20408;-67
2023/07/20 11:21:45;;;;;;;2.10;1.40;;;19.80;99.90;;;;;;4986465;28;20669;-63
2023/07/20 11:24:13;;;;;;;3.15;1.38;;;20.00;99.90;;;;;;4982736;28;20504;-64
2023/07/20 11:26:49;;;;;;;1.95;1.33;;;20.20;99.90;;;;;;4989443;28;20394;-63
2023/07/20 11:29:17;;;;;;;2.13;1.43;;;20.40;99.90;;;;;;4989156;28;20399;-67
2023/07/20 11:31:44;;;;;;;3.28;1.50;;;20.70;99.90;;;;;;4993582;28;20912;-63
2023/07/20 11:34:12;;;;;;;2.85;1.52;;;21.00;99.90;;;;;;4965847;28;20407;-64
2023/07/20 11:36:42;;;;;;;3.20;1.60;;;21.30;99.80;;;;;;4985450;28;20403;-64
2023/07/20 11:39:11;;;;;;;2.85;1.40;;;21.40;98.10;;;;;;4984243;28;20419;-64
2023/07/20 11:41:39;;;;;;;2.45;1.35;;;21.40;97.10;;;;;;4966645;28;20484;-62
2023/07/20 11:44:12;;;;;;;4.30;1.60;;;21.40;97.50;;;;;;4985867;28;20461;-64
2023/07/20 11:46:39;;;;;;;2.53;1.30;;;21.30;97.40;;;;;;4985511;28;20399;-66
2023/07/20 11:49:05;;;;;;;2.83;1.70;;;21.30;98.00;;;;;;4979190;28;20757;-64
2023/07/20 11:51:32;;;;;;;2.58;1.60;;;21.30;97.30;;;;;;4976424;28;20430;-63
2023/07/20 11:53:58;;;;;;;3.58;1.60;;;21.30;97.20;;;;;;4964392;28;20416;-68
2023/07/20 11:56:25;;;;;;;2.05;1.40;;;21.20;97.60;;;;;;4968886;28;20414;-63
2023/07/20 11:58:55;;;;;;;2.25;1.30;;;21.20;98.00;;;;;;4977760;28;20408;-63
2023/07/20 12:01:22;;;;;;;2.65;1.38;;;21.20;97.30;;;;;;4982172;28;20426;-63
2023/07/20 12:03:49;;;;;;;4.27;1.57;;;21.10;97.20;;;;;;4982083;28;20543;-63
2023/07/20 12:06:15;;;;;;;2.50;1.42;;;21.10;97.00;;;;;;4986463;28;20410;-63
2023/07/20 12:08:44;;;;;;;2.03;1.27;;;21.10;96.20;;;;;;4986405;28;20481;-63
2023/07/20 12:11:10;;;;;;;1.90;1.33;;;21.10;96.60;;;;;;4984216;28;20801;-63
2023/07/20 12:13:42;;;;;;;3.28;1.35;;;21.10;96.30;;;;;;4970927;28;20426;-63
2023/07/20 12:16:15;;;;;;;3.10;1.38;;;21.10;96.10;;;;;;5067216;28;20416;-63
2023/07/20 12:18:42;;;;;;;3.37;1.53;;;21.10;96.00;;;;;;4989486;28;20459;-66
2023/07/20 12:21:09;;;;;;;3.17;1.50;;;21.10;96.10;;;;;;4953696;28;20430;-63
2023/07/20 12:23:39;;;;;;;2.17;1.35;;;21.00;95.90;;;;;;4983314;28;20411;-63
2023/07/20 12:26:14;;;;;;;3.45;1.30;;;21.00;96.80;;;;;;5069130;28;20915;-63
2023/07/20 12:28:41;;;;;;;3.72;1.38;;;21.10;97.00;;;;;;4952758;28;20805;-66
2023/07/20 12:31:07;;;;;;;3.45;1.67;;;21.20;96.80;;;;;;4985087;28;20422;-63
2023/07/20 12:33:33;;;;;;;3.05;1.52;;;21.40;96.70;;;;;;4986979;28;20414;-67
2023/07/20 12:36:01;;;;;;;3.17;1.30;;;21.70;97.20;;;;;;4985348;28;20410;-63
2023/07/20 12:38:28;;;;;;;2.00;1.20;;;22.00;96.70;;;;;;4982691;28;20395;-63
2023/07/20 12:40:58;;;;;;;3.63;1.20;;;22.30;96.40;;;;;;4980219;28;20414;-68
2023/07/20 12:43:24;;;;;;;3.28;1.33;;;22.40;95.80;;;;;;4976785;28;20412;-63
2023/07/20 12:45:49;;;;;;;3.13;1.30;;;22.40;95.40;;;;;;4967063;28;20414;-63
2023/07/20 12:48:15;;;;;;;1.98;1.27;;;22.40;95.10;;;;;;4970866;28;20592;-63
2023/07/20 12:50:41;;;;;;;2.53;1.30;;;22.20;95.50;;;;;;4987429;28;20475;-63
2023/07/20 12:53:07;;;;;;;2.58;1.42;;;22.10;95.80;;;;;;4986115;28;20888;-64